Chie Maru No.10 — JD2376 — position and weather

sailwx.info

Track history (hours):
 
Tides and Currents Weather Stations Pressure Air Temp Water Temp Dewpoint Dewpoint Depression Visibility Wind Speed Wind Dir Waves Ship Positions

Chie Maru No.10

Last reported at 2017-Apr-26 08:23 UTC. Time now 2017-Apr-29 01:56 UTC.
Position N 35°13' E 139°46'.

Length 72 m; draft 5 m.

Type: Ship. MMSI: 431000147.

Date/timePositionNaut miles runAvg speedWind from/ knotsBaromVisibWave heightAir tempDewpointWater temp
2017-Apr-26 08:23N 35°13' E 139°46'410.7
2017-Apr-26 07:58N 35°17' E 139°45'510.7
2017-Apr-26 07:30N 35°22' E 139°43'510.1
2017-Apr-26 07:00N 35°26' E 139°45'4 8.7
2017-Apr-26 06:30N 35°30' E 139°47'1 1.8
2017-Apr-26 06:00N 35°31' E 139°46'0 0.0
2017-Apr-26 05:30N 35°31' E 139°46'0 0.0
2017-Apr-26 05:00N 35°31' E 139°46'0 0.0
2017-Apr-26 04:30N 35°31' E 139°46'0 0.0
2017-Apr-26 04:00N 35°31' E 139°46'0 0.0
2017-Apr-26 03:30N 35°31' E 139°46'2 3.7
2017-Apr-26 03:00N 35°30' E 139°48'4 8.1
2017-Apr-26 02:30N 35°27' E 139°45'510.0
2017-Apr-26 02:00N 35°24' E 139°40'0 0.8
2017-Apr-26 01:30N 35°24' E 139°40'0 0.0
2017-Apr-26 01:00N 35°24' E 139°40'0 0.0
2017-Apr-26 00:30N 35°24' E 139°40'0 0.0
2017-Apr-26 00:00N 35°24' E 139°40'0 0.0
2017-Apr-25 23:31N 35°24' E 139°40'1 2.8
2017-Apr-25 23:00N 35°23' E 139°40'0 0.9
2017-Apr-25 22:28N 35°23' E 139°41'0 0.0
2017-Apr-25 21:58N 35°23' E 139°41'0 0.0
2017-Apr-25 21:28N 35°23' E 139°41'0 0.0
2017-Apr-25 20:49N 35°23' E 139°41'0 0.0
2017-Apr-25 20:28N 35°23' E 139°41'0 0.1
2017-Apr-25 19:58N 35°23' E 139°41'0 0.0
2017-Apr-25 19:28N 35°23' E 139°41'0 0.1
2017-Apr-25 18:55N 35°23' E 139°41'0 0.1
2017-Apr-25 18:28N 35°23' E 139°41'0 0.0
2017-Apr-25 17:58N 35°23' E 139°41'0 0.1
2017-Apr-25 17:28N 35°23' E 139°41'0 0.0
2017-Apr-25 16:58N 35°23' E 139°41'0 0.0
2017-Apr-25 16:28N 35°23' E 139°41'0 0.0
2017-Apr-25 15:58N 35°23' E 139°41'0 0.0
2017-Apr-25 15:28N 35°23' E 139°41'0 0.0
2017-Apr-25 14:58N 35°23' E 139°41'0 0.0
2017-Apr-25 14:28N 35°23' E 139°41'0 0.0
2017-Apr-25 13:28N 35°23' E 139°41'0 0.0
2017-Apr-25 12:58N 35°23' E 139°41'0 0.8
2017-Apr-25 12:30N 35°23' E 139°41'611.6
2017-Apr-25 12:00N 35°27' E 139°47'611.9
2017-Apr-25 11:30N 35°31' E 139°52'6 1.1
2017-Apr-25 05:56N 35°33' E 139°59'3 0.5
2017-Apr-25 00:14N 35°31' E 139°56'312.4
2017-Apr-25 00:00N 35°30' E 139°53'612.6
2017-Apr-24 23:31N 35°25' E 139°48'612.1
2017-Apr-24 23:01N 35°20' E 139°44'611.3
2017-Apr-24 22:30N 35°15' E 139°47'612.3
2017-Apr-24 22:00N 35°08' E 139°46'613.0
2017-Apr-24 21:30N 35°02' E 139°44'8 0.2
2017-Apr-23 08:28N 34°54' E 139°45'511.2
2017-Apr-23 08:00N 34°59' E 139°43'612.0
2017-Apr-23 07:30N 35°05' E 139°44'612.2
2017-Apr-23 07:00N 35°11' E 139°46'611.8
2017-Apr-23 06:29N 35°17' E 139°45'612.0
2017-Apr-23 06:00N 35°22' E 139°42'611.9
2017-Apr-23 05:30N 35°27' E 139°47'4 8.1
2017-Apr-23 05:00N 35°31' E 139°46'0 0.1
2017-Apr-23 04:30N 35°31' E 139°46'0 0.0
2017-Apr-23 04:00N 35°31' E 139°46'0 0.0
2017-Apr-23 03:30N 35°31' E 139°46'0 0.0
2017-Apr-23 03:00N 35°31' E 139°46'0 0.0
2017-Apr-23 02:30N 35°31' E 139°46'0 0.0
2017-Apr-23 02:00N 35°31' E 139°46'0 0.0
2017-Apr-23 01:30N 35°31' E 139°46'0 0.0
2017-Apr-23 01:00N 35°31' E 139°46'0 0.0
2017-Apr-23 00:30N 35°31' E 139°46'2 5.0
2017-Apr-23 00:00N 35°29' E 139°48'1 2.4
2017-Apr-22 23:29N 35°28' E 139°48'0 0.0
2017-Apr-22 22:59N 35°28' E 139°48'0 0.0
2017-Apr-22 22:29N 35°28' E 139°48'0 0.1
2017-Apr-22 21:59N 35°28' E 139°48'0 0.1
2017-Apr-22 21:29N 35°28' E 139°48'0 0.0
2017-Apr-22 20:59N 35°28' E 139°48'0 0.0
2017-Apr-22 20:29N 35°28' E 139°48'0 0.0
2017-Apr-22 19:59N 35°28' E 139°48'0 0.0
2017-Apr-22 19:26N 35°28' E 139°48'0 0.0
2017-Apr-22 18:59N 35°28' E 139°48'0 0.0
2017-Apr-22 18:29N 35°28' E 139°48'0 0.1
2017-Apr-22 17:59N 35°28' E 139°48'0 0.1
2017-Apr-22 17:29N 35°28' E 139°48'0 0.0
2017-Apr-22 16:59N 35°28' E 139°48'0 0.0
2017-Apr-22 16:29N 35°28' E 139°48'0 0.0
2017-Apr-22 15:56N 35°28' E 139°48'0 0.0
2017-Apr-22 15:29N 35°28' E 139°48'0 0.0
2017-Apr-22 14:56N 35°28' E 139°48'0 0.0
2017-Apr-22 14:29N 35°28' E 139°48'8 8.4
2017-Apr-22 13:31N 35°21' E 139°45'511.0
2017-Apr-22 13:01N 35°15' E 139°47'611.8
2017-Apr-22 12:31N 35°10' E 139°46'612.1
2017-Apr-22 12:01N 35°04' E 139°42'712.5
2017-Apr-22 11:29N 34°60' E 139°36'7 0.3
2017-Apr-21 07:10N 34°59' E 139°27'211.4
2017-Apr-21 07:00N 35°00' E 139°29'611.7
2017-Apr-21 06:28N 35°04' E 139°35'612.3
2017-Apr-21 06:00N 35°07' E 139°41'612.0
2017-Apr-21 05:30N 35°12' E 139°46'611.7
2017-Apr-21 05:00N 35°17' E 139°45'612.1
2017-Apr-21 04:30N 35°23' E 139°41'2 4.5
2017-Apr-21 04:00N 35°24' E 139°40'0 0.0
2017-Apr-21 03:30N 35°24' E 139°40'0 0.0
2017-Apr-21 03:00N 35°24' E 139°40'0 0.0
2017-Apr-21 02:30N 35°24' E 139°40'0 0.0
2017-Apr-21 02:00N 35°24' E 139°40'0 0.0
2017-Apr-21 01:30N 35°24' E 139°40'0 0.0
2017-Apr-21 01:00N 35°24' E 139°40'0 0.0
2017-Apr-21 00:30N 35°24' E 139°40'0 0.0
2017-Apr-21 00:00N 35°24' E 139°40'0 0.0
2017-Apr-20 23:30N 35°24' E 139°40'1 1.7
2017-Apr-20 23:00N 35°24' E 139°40'4 7.6
2017-Apr-20 22:31N 35°23' E 139°45'0 0.0
2017-Apr-20 21:58N 35°23' E 139°45'0 0.0
2017-Apr-20 21:28N 35°23' E 139°45'0 0.0
2017-Apr-20 20:55N 35°23' E 139°45'0 0.0
2017-Apr-20 20:28N 35°23' E 139°45'0 0.0
2017-Apr-20 19:58N 35°23' E 139°45'0 0.0
2017-Apr-20 19:28N 35°23' E 139°45'0 0.0
2017-Apr-20 18:58N 35°23' E 139°45'0 0.0
2017-Apr-20 18:28N 35°23' E 139°45'0 0.0
2017-Apr-20 17:58N 35°23' E 139°45'0 0.0
2017-Apr-20 17:28N 35°23' E 139°45'0 0.0
2017-Apr-20 16:58N 35°23' E 139°45'0 0.0
2017-Apr-20 16:25N 35°23' E 139°45'0 0.0
2017-Apr-20 15:58N 35°23' E 139°45'0 0.1
2017-Apr-20 15:28N 35°23' E 139°45'0 0.0
2017-Apr-20 14:58N 35°23' E 139°45'0 0.0
2017-Apr-20 14:28N 35°23' E 139°45'0 0.0
2017-Apr-20 13:28N 35°23' E 139°45'0 0.0
2017-Apr-20 12:58N 35°23' E 139°45'0 0.0
2017-Apr-20 12:30N 35°23' E 139°45'4 8.7
2017-Apr-20 12:00N 35°19' E 139°44'612.3
2017-Apr-20 11:30N 35°13' E 139°47'612.8
2017-Apr-20 11:00N 35°07' E 139°45'712.7
2017-Apr-20 10:30N 35°02' E 139°40'18 0.7
2017-Apr-19 07:58N 34°56' E 139°20'5 9.3
2017-Apr-19 07:29N 34°58' E 139°25'5 9.7
2017-Apr-19 07:00N 35°01' E 139°29'5 9.8
2017-Apr-19 06:30N 35°04' E 139°34'510.0
2017-Apr-19 06:00N 35°06' E 139°39'5 9.2
2017-Apr-19 05:30N 35°09' E 139°44'510.2
2017-Apr-19 05:00N 35°14' E 139°46'611.6
2017-Apr-19 04:30N 35°19' E 139°43'5 9.7
2017-Apr-19 04:01N 35°24' E 139°43'1 1.6
2017-Apr-19 03:28N 35°24' E 139°44'0 0.0
2017-Apr-19 02:52N 35°24' E 139°44'0 0.0
2017-Apr-19 02:30N 35°24' E 139°44'3 6.4
2017-Apr-19 02:01N 35°23' E 139°41'2 3.3
2017-Apr-19 01:30N 35°24' E 139°43'1 2.5
2017-Apr-19 00:58N 35°24' E 139°44'0 0.0
2017-Apr-19 00:28N 35°24' E 139°44'0 0.0
2017-Apr-18 23:58N 35°24' E 139°44'0 0.0
2017-Apr-18 23:25N 35°24' E 139°44'0 0.0
2017-Apr-18 22:58N 35°24' E 139°44'0 0.0
2017-Apr-18 22:19N 35°24' E 139°44'0 0.0
2017-Apr-18 21:55N 35°24' E 139°44'0 0.0
2017-Apr-18 21:28N 35°24' E 139°44'0 0.0
2017-Apr-18 20:58N 35°24' E 139°44'0 0.1
2017-Apr-18 20:28N 35°24' E 139°44'0 0.0
2017-Apr-18 19:58N 35°24' E 139°44'0 0.0
2017-Apr-18 19:25N 35°24' E 139°44'0 0.1
2017-Apr-18 18:58N 35°24' E 139°44'0 0.0
2017-Apr-18 18:28N 35°24' E 139°44'0 0.0
2017-Apr-18 17:58N 35°24' E 139°44'0 0.0
2017-Apr-18 17:28N 35°24' E 139°44'0 0.0
2017-Apr-18 16:58N 35°24' E 139°44'0 0.0
2017-Apr-18 16:28N 35°24' E 139°44'0 0.0
2017-Apr-18 15:58N 35°24' E 139°44'0 0.0
2017-Apr-18 15:28N 35°24' E 139°44'0 0.0
2017-Apr-18 14:58N 35°24' E 139°44'0 0.0
2017-Apr-18 14:25N 35°24' E 139°44'0 0.0
2017-Apr-18 13:28N 35°24' E 139°44'0 0.0
2017-Apr-18 12:58N 35°24' E 139°44'0 0.0
2017-Apr-18 12:28N 35°24' E 139°44'0 0.1
2017-Apr-18 11:58N 35°24' E 139°44'0 0.1
2017-Apr-18 11:28N 35°24' E 139°44'0 0.0
2017-Apr-18 10:58N 35°24' E 139°44'0 0.0
2017-Apr-18 10:28N 35°24' E 139°44'0 0.1
2017-Apr-18 09:58N 35°24' E 139°44'0 0.1
2017-Apr-18 09:28N 35°24' E 139°44'0 0.0
2017-Apr-18 09:00N 35°24' E 139°44'0 0.0
2017-Apr-18 08:28N 35°24' E 139°44'0 0.0
2017-Apr-18 07:59N 35°24' E 139°44'0 0.0
2017-Apr-18 07:27N 35°24' E 139°44'0 0.0
2017-Apr-18 07:00N 35°24' E 139°44'0 0.0
2017-Apr-18 06:30N 35°24' E 139°44'0 0.0
2017-Apr-18 05:57N 35°24' E 139°44'1 1.6
2017-Apr-18 05:30N 35°24' E 139°45'510.2
2017-Apr-18 05:01N 35°29' E 139°47'3 5.1
2017-Apr-18 04:30N 35°31' E 139°46'0 0.0
2017-Apr-18 04:01N 35°31' E 139°46'0 0.0
2017-Apr-18 03:31N 35°31' E 139°46'0 0.0
2017-Apr-18 03:00N 35°31' E 139°46'0 0.0
2017-Apr-18 02:30N 35°31' E 139°46'0 0.0
2017-Apr-18 02:01N 35°31' E 139°46'0 0.0
2017-Apr-18 01:30N 35°31' E 139°46'0 0.0
2017-Apr-18 01:00N 35°31' E 139°46'0 0.0
2017-Apr-18 00:30N 35°31' E 139°46'1 2.5
2017-Apr-18 00:01N 35°30' E 139°47'2 4.0
2017-Apr-17 23:30N 35°29' E 139°48'0 0.0
2017-Apr-17 22:59N 35°29' E 139°48'0 0.0
2017-Apr-17 22:30N 35°29' E 139°48'0 0.0
2017-Apr-17 22:00N 35°29' E 139°48'0 0.0
2017-Apr-17 21:30N 35°29' E 139°48'0 0.0
2017-Apr-17 21:00N 35°29' E 139°48'0 0.0
2017-Apr-17 20:30N 35°29' E 139°48'0 0.0
2017-Apr-17 20:00N 35°29' E 139°48'0 0.0
2017-Apr-17 19:30N 35°29' E 139°48'0 0.0
2017-Apr-17 19:00N 35°29' E 139°48'0 0.0
2017-Apr-17 18:30N 35°29' E 139°48'0 0.0
2017-Apr-17 18:00N 35°29' E 139°48'0 0.0
2017-Apr-17 17:30N 35°29' E 139°48'0 0.0
2017-Apr-17 16:59N 35°29' E 139°48'0 0.0
2017-Apr-17 16:30N 35°29' E 139°48'0 0.1
2017-Apr-17 16:01N 35°29' E 139°48'0 0.1
2017-Apr-17 15:30N 35°29' E 139°48'0 0.1
2017-Apr-17 15:01N 35°29' E 139°48'0 0.0
2017-Apr-17 14:30N 35°29' E 139°48'8 7.7
2017-Apr-17 13:30N 35°21' E 139°45'510.4
2017-Apr-17 13:00N 35°16' E 139°46'612.0
2017-Apr-17 12:30N 35°10' E 139°46'612.7
2017-Apr-17 12:00N 35°05' E 139°42'612.9
2017-Apr-17 11:30N 35°00' E 139°37'  
Track history (hours):
 
Tides and Currents Weather Stations Pressure Air Temp Water Temp Dewpoint Dewpoint Depression Visibility Wind Speed Wind Dir Waves Ship Positions

Chie Maru No.10

Last reported at 2017-Apr-26 08:23 UTC. Time now 2017-Apr-29 01:56 UTC.
Position N 35°13' E 139°46'.

Length 72 m; draft 5 m.

Type: Ship. MMSI: 431000147.

Date/timePositionNaut miles runAvg speedWind from/ knotsBaromVisibWave heightAir tempDewpointWater temp
2017-Apr-26 08:23N 35°13' E 139°46'410.7
2017-Apr-26 07:58N 35°17' E 139°45'510.7
2017-Apr-26 07:30N 35°22' E 139°43'510.1
2017-Apr-26 07:00N 35°26' E 139°45'4 8.7
2017-Apr-26 06:30N 35°30' E 139°47'1 1.8
2017-Apr-26 06:00N 35°31' E 139°46'0 0.0
2017-Apr-26 05:30N 35°31' E 139°46'0 0.0
2017-Apr-26 05:00N 35°31' E 139°46'0 0.0
2017-Apr-26 04:30N 35°31' E 139°46'0 0.0
2017-Apr-26 04:00N 35°31' E 139°46'0 0.0
2017-Apr-26 03:30N 35°31' E 139°46'2 3.7
2017-Apr-26 03:00N 35°30' E 139°48'4 8.1
2017-Apr-26 02:30N 35°27' E 139°45'510.0
2017-Apr-26 02:00N 35°24' E 139°40'0 0.8
2017-Apr-26 01:30N 35°24' E 139°40'0 0.0
2017-Apr-26 01:00N 35°24' E 139°40'0 0.0
2017-Apr-26 00:30N 35°24' E 139°40'0 0.0
2017-Apr-26 00:00N 35°24' E 139°40'0 0.0
2017-Apr-25 23:31N 35°24' E 139°40'1 2.8
2017-Apr-25 23:00N 35°23' E 139°40'0 0.9
2017-Apr-25 22:28N 35°23' E 139°41'0 0.0
2017-Apr-25 21:58N 35°23' E 139°41'0 0.0
2017-Apr-25 21:28N 35°23' E 139°41'0 0.0
2017-Apr-25 20:49N 35°23' E 139°41'0 0.0
2017-Apr-25 20:28N 35°23' E 139°41'0 0.1
2017-Apr-25 19:58N 35°23' E 139°41'0 0.0
2017-Apr-25 19:28N 35°23' E 139°41'0 0.1
2017-Apr-25 18:55N 35°23' E 139°41'0 0.1
2017-Apr-25 18:28N 35°23' E 139°41'0 0.0
2017-Apr-25 17:58N 35°23' E 139°41'0 0.1
2017-Apr-25 17:28N 35°23' E 139°41'0 0.0
2017-Apr-25 16:58N 35°23' E 139°41'0 0.0
2017-Apr-25 16:28N 35°23' E 139°41'0 0.0
2017-Apr-25 15:58N 35°23' E 139°41'0 0.0
2017-Apr-25 15:28N 35°23' E 139°41'0 0.0
2017-Apr-25 14:58N 35°23' E 139°41'0 0.0
2017-Apr-25 14:28N 35°23' E 139°41'0 0.0
2017-Apr-25 13:28N 35°23' E 139°41'0 0.0
2017-Apr-25 12:58N 35°23' E 139°41'0 0.8
2017-Apr-25 12:30N 35°23' E 139°41'611.6
2017-Apr-25 12:00N 35°27' E 139°47'611.9
2017-Apr-25 11:30N 35°31' E 139°52'6 1.1
2017-Apr-25 05:56N 35°33' E 139°59'3 0.5
2017-Apr-25 00:14N 35°31' E 139°56'312.4
2017-Apr-25 00:00N 35°30' E 139°53'612.6
2017-Apr-24 23:31N 35°25' E 139°48'612.1
2017-Apr-24 23:01N 35°20' E 139°44'611.3
2017-Apr-24 22:30N 35°15' E 139°47'612.3
2017-Apr-24 22:00N 35°08' E 139°46'613.0
2017-Apr-24 21:30N 35°02' E 139°44'8 0.2
2017-Apr-23 08:28N 34°54' E 139°45'511.2
2017-Apr-23 08:00N 34°59' E 139°43'612.0
2017-Apr-23 07:30N 35°05' E 139°44'612.2
2017-Apr-23 07:00N 35°11' E 139°46'611.8
2017-Apr-23 06:29N 35°17' E 139°45'612.0
2017-Apr-23 06:00N 35°22' E 139°42'611.9
2017-Apr-23 05:30N 35°27' E 139°47'4 8.1
2017-Apr-23 05:00N 35°31' E 139°46'0 0.1
2017-Apr-23 04:30N 35°31' E 139°46'0 0.0
2017-Apr-23 04:00N 35°31' E 139°46'0 0.0
2017-Apr-23 03:30N 35°31' E 139°46'0 0.0
2017-Apr-23 03:00N 35°31' E 139°46'0 0.0
2017-Apr-23 02:30N 35°31' E 139°46'0 0.0
2017-Apr-23 02:00N 35°31' E 139°46'0 0.0
2017-Apr-23 01:30N 35°31' E 139°46'0 0.0
2017-Apr-23 01:00N 35°31' E 139°46'0 0.0
2017-Apr-23 00:30N 35°31' E 139°46'2 5.0
2017-Apr-23 00:00N 35°29' E 139°48'1 2.4
2017-Apr-22 23:29N 35°28' E 139°48'0 0.0
2017-Apr-22 22:59N 35°28' E 139°48'0 0.0
2017-Apr-22 22:29N 35°28' E 139°48'0 0.1
2017-Apr-22 21:59N 35°28' E 139°48'0 0.1
2017-Apr-22 21:29N 35°28' E 139°48'0 0.0
2017-Apr-22 20:59N 35°28' E 139°48'0 0.0
2017-Apr-22 20:29N 35°28' E 139°48'0 0.0
2017-Apr-22 19:59N 35°28' E 139°48'0 0.0
2017-Apr-22 19:26N 35°28' E 139°48'0 0.0
2017-Apr-22 18:59N 35°28' E 139°48'0 0.0
2017-Apr-22 18:29N 35°28' E 139°48'0 0.1
2017-Apr-22 17:59N 35°28' E 139°48'0 0.1
2017-Apr-22 17:29N 35°28' E 139°48'0 0.0
2017-Apr-22 16:59N 35°28' E 139°48'0 0.0
2017-Apr-22 16:29N 35°28' E 139°48'0 0.0
2017-Apr-22 15:56N 35°28' E 139°48'0 0.0
2017-Apr-22 15:29N 35°28' E 139°48'0 0.0
2017-Apr-22 14:56N 35°28' E 139°48'0 0.0
2017-Apr-22 14:29N 35°28' E 139°48'8 8.4
2017-Apr-22 13:31N 35°21' E 139°45'511.0
2017-Apr-22 13:01N 35°15' E 139°47'611.8
2017-Apr-22 12:31N 35°10' E 139°46'612.1
2017-Apr-22 12:01N 35°04' E 139°42'712.5
2017-Apr-22 11:29N 34°60' E 139°36'7 0.3
2017-Apr-21 07:10N 34°59' E 139°27'211.4
2017-Apr-21 07:00N 35°00' E 139°29'611.7
2017-Apr-21 06:28N 35°04' E 139°35'612.3
2017-Apr-21 06:00N 35°07' E 139°41'612.0
2017-Apr-21 05:30N 35°12' E 139°46'611.7
2017-Apr-21 05:00N 35°17' E 139°45'612.1
2017-Apr-21 04:30N 35°23' E 139°41'2 4.5
2017-Apr-21 04:00N 35°24' E 139°40'0 0.0
2017-Apr-21 03:30N 35°24' E 139°40'0 0.0
2017-Apr-21 03:00N 35°24' E 139°40'0 0.0
2017-Apr-21 02:30N 35°24' E 139°40'0 0.0
2017-Apr-21 02:00N 35°24' E 139°40'0 0.0
2017-Apr-21 01:30N 35°24' E 139°40'0 0.0
2017-Apr-21 01:00N 35°24' E 139°40'0 0.0
2017-Apr-21 00:30N 35°24' E 139°40'0 0.0
2017-Apr-21 00:00N 35°24' E 139°40'0 0.0
2017-Apr-20 23:30N 35°24' E 139°40'1 1.7
2017-Apr-20 23:00N 35°24' E 139°40'4 7.6
2017-Apr-20 22:31N 35°23' E 139°45'0 0.0
2017-Apr-20 21:58N 35°23' E 139°45'0 0.0
2017-Apr-20 21:28N 35°23' E 139°45'0 0.0
2017-Apr-20 20:55N 35°23' E 139°45'0 0.0
2017-Apr-20 20:28N 35°23' E 139°45'0 0.0
2017-Apr-20 19:58N 35°23' E 139°45'0 0.0
2017-Apr-20 19:28N 35°23' E 139°45'0 0.0
2017-Apr-20 18:58N 35°23' E 139°45'0 0.0
2017-Apr-20 18:28N 35°23' E 139°45'0 0.0
2017-Apr-20 17:58N 35°23' E 139°45'0 0.0
2017-Apr-20 17:28N 35°23' E 139°45'0 0.0
2017-Apr-20 16:58N 35°23' E 139°45'0 0.0
2017-Apr-20 16:25N 35°23' E 139°45'0 0.0
2017-Apr-20 15:58N 35°23' E 139°45'0 0.1
2017-Apr-20 15:28N 35°23' E 139°45'0 0.0
2017-Apr-20 14:58N 35°23' E 139°45'0 0.0
2017-Apr-20 14:28N 35°23' E 139°45'0 0.0
2017-Apr-20 13:28N 35°23' E 139°45'0 0.0
2017-Apr-20 12:58N 35°23' E 139°45'0 0.0
2017-Apr-20 12:30N 35°23' E 139°45'4 8.7
2017-Apr-20 12:00N 35°19' E 139°44'612.3
2017-Apr-20 11:30N 35°13' E 139°47'612.8
2017-Apr-20 11:00N 35°07' E 139°45'712.7
2017-Apr-20 10:30N 35°02' E 139°40'18 0.7
2017-Apr-19 07:58N 34°56' E 139°20'5 9.3
2017-Apr-19 07:29N 34°58' E 139°25'5 9.7
2017-Apr-19 07:00N 35°01' E 139°29'5 9.8
2017-Apr-19 06:30N 35°04' E 139°34'510.0
2017-Apr-19 06:00N 35°06' E 139°39'5 9.2
2017-Apr-19 05:30N 35°09' E 139°44'510.2
2017-Apr-19 05:00N 35°14' E 139°46'611.6
2017-Apr-19 04:30N 35°19' E 139°43'5 9.7
2017-Apr-19 04:01N 35°24' E 139°43'1 1.6
2017-Apr-19 03:28N 35°24' E 139°44'0 0.0
2017-Apr-19 02:52N 35°24' E 139°44'0 0.0
2017-Apr-19 02:30N 35°24' E 139°44'3 6.4
2017-Apr-19 02:01N 35°23' E 139°41'2 3.3
2017-Apr-19 01:30N 35°24' E 139°43'1 2.5
2017-Apr-19 00:58N 35°24' E 139°44'0 0.0
2017-Apr-19 00:28N 35°24' E 139°44'0 0.0
2017-Apr-18 23:58N 35°24' E 139°44'0 0.0
2017-Apr-18 23:25N 35°24' E 139°44'0 0.0
2017-Apr-18 22:58N 35°24' E 139°44'0 0.0
2017-Apr-18 22:19N 35°24' E 139°44'0 0.0
2017-Apr-18 21:55N 35°24' E 139°44'0 0.0
2017-Apr-18 21:28N 35°24' E 139°44'0 0.0
2017-Apr-18 20:58N 35°24' E 139°44'0 0.1
2017-Apr-18 20:28N 35°24' E 139°44'0 0.0
2017-Apr-18 19:58N 35°24' E 139°44'0 0.0
2017-Apr-18 19:25N 35°24' E 139°44'0 0.1
2017-Apr-18 18:58N 35°24' E 139°44'0 0.0
2017-Apr-18 18:28N 35°24' E 139°44'0 0.0
2017-Apr-18 17:58N 35°24' E 139°44'0 0.0
2017-Apr-18 17:28N 35°24' E 139°44'0 0.0
2017-Apr-18 16:58N 35°24' E 139°44'0 0.0
2017-Apr-18 16:28N 35°24' E 139°44'0 0.0
2017-Apr-18 15:58N 35°24' E 139°44'0 0.0
2017-Apr-18 15:28N 35°24' E 139°44'0 0.0
2017-Apr-18 14:58N 35°24' E 139°44'0 0.0
2017-Apr-18 14:25N 35°24' E 139°44'0 0.0
2017-Apr-18 13:28N 35°24' E 139°44'0 0.0
2017-Apr-18 12:58N 35°24' E 139°44'0 0.0
2017-Apr-18 12:28N 35°24' E 139°44'0 0.1
2017-Apr-18 11:58N 35°24' E 139°44'0 0.1
2017-Apr-18 11:28N 35°24' E 139°44'0 0.0
2017-Apr-18 10:58N 35°24' E 139°44'0 0.0
2017-Apr-18 10:28N 35°24' E 139°44'0 0.1
2017-Apr-18 09:58N 35°24' E 139°44'0 0.1
2017-Apr-18 09:28N 35°24' E 139°44'0 0.0
2017-Apr-18 09:00N 35°24' E 139°44'0 0.0
2017-Apr-18 08:28N 35°24' E 139°44'0 0.0
2017-Apr-18 07:59N 35°24' E 139°44'0 0.0
2017-Apr-18 07:27N 35°24' E 139°44'0 0.0
2017-Apr-18 07:00N 35°24' E 139°44'0 0.0
2017-Apr-18 06:30N 35°24' E 139°44'0 0.0
2017-Apr-18 05:57N 35°24' E 139°44'1 1.6
2017-Apr-18 05:30N 35°24' E 139°45'510.2
2017-Apr-18 05:01N 35°29' E 139°47'3 5.1
2017-Apr-18 04:30N 35°31' E 139°46'0 0.0
2017-Apr-18 04:01N 35°31' E 139°46'0 0.0
2017-Apr-18 03:31N 35°31' E 139°46'0 0.0
2017-Apr-18 03:00N 35°31' E 139°46'0 0.0
2017-Apr-18 02:30N 35°31' E 139°46'0 0.0
2017-Apr-18 02:01N 35°31' E 139°46'0 0.0
2017-Apr-18 01:30N 35°31' E 139°46'0 0.0
2017-Apr-18 01:00N 35°31' E 139°46'0 0.0
2017-Apr-18 00:30N 35°31' E 139°46'1 2.5
2017-Apr-18 00:01N 35°30' E 139°47'2 4.0
2017-Apr-17 23:30N 35°29' E 139°48'0 0.0
2017-Apr-17 22:59N 35°29' E 139°48'0 0.0
2017-Apr-17 22:30N 35°29' E 139°48'0 0.0
2017-Apr-17 22:00N 35°29' E 139°48'0 0.0
2017-Apr-17 21:30N 35°29' E 139°48'0 0.0
2017-Apr-17 21:00N 35°29' E 139°48'0 0.0
2017-Apr-17 20:30N 35°29' E 139°48'0 0.0
2017-Apr-17 20:00N 35°29' E 139°48'0 0.0
2017-Apr-17 19:30N 35°29' E 139°48'0 0.0
2017-Apr-17 19:00N 35°29' E 139°48'0 0.0
2017-Apr-17 18:30N 35°29' E 139°48'0 0.0
2017-Apr-17 18:00N 35°29' E 139°48'0 0.0
2017-Apr-17 17:30N 35°29' E 139°48'0 0.0
2017-Apr-17 16:59N 35°29' E 139°48'0 0.0
2017-Apr-17 16:30N 35°29' E 139°48'0 0.1
2017-Apr-17 16:01N 35°29' E 139°48'0 0.1
2017-Apr-17 15:30N 35°29' E 139°48'0 0.1
2017-Apr-17 15:01N 35°29' E 139°48'0 0.0
2017-Apr-17 14:30N 35°29' E 139°48'8 7.7
2017-Apr-17 13:30N 35°21' E 139°45'510.4
2017-Apr-17 13:00N 35°16' E 139°46'612.0
2017-Apr-17 12:30N 35°10' E 139°46'612.7
2017-Apr-17 12:00N 35°05' E 139°42'612.9
2017-Apr-17 11:30N 35°00' E 139°37'  

Dump ship's entire track history